createdAt,value
2023-08-16T02:43:41.999Z,100114.66
2023-08-16T02:47:45.606Z,100116.78
2023-08-16T02:51:48.804Z,100120.84
2023-08-16T06:05:23.545Z,100169.03
2023-08-16T06:09:29.816Z,100178.59
2023-08-16T06:13:33.061Z,100177.47
2023-08-16T06:17:36.428Z,100182.16
2023-08-16T06:21:41.506Z,100171.69
2023-08-16T06:25:44.775Z,100172.34
2023-08-16T06:29:47.782Z,100166.31
2023-08-16T06:33:50.948Z,100172.94
2023-08-16T06:37:55.449Z,100172.41
2023-08-16T06:41:58.520Z,100169.00
2023-08-16T06:46:01.433Z,100178.63
2023-08-16T06:50:07.613Z,100179.84
2023-08-16T06:54:13.313Z,100187.91
2023-08-16T06:58:16.385Z,100185.22
2023-08-16T07:02:22.358Z,100187.88
2023-08-16T07:06:27.912Z,100185.66
2023-08-16T07:10:32.149Z,100187.81
2023-08-16T07:14:35.487Z,100191.28
2023-08-16T07:18:38.755Z,100183.28
2023-08-16T07:22:42.069Z,100183.78
2023-08-16T07:26:46.477Z,100189.81
2023-08-16T07:30:49.447Z,100188.38
2023-08-16T07:34:52.552Z,100183.84
2023-08-16T07:38:55.582Z,100183.47
2023-08-16T07:43:00.092Z,100176.28
2023-08-16T07:47:03.155Z,100185.13
2023-08-16T07:51:06.421Z,100176.06
2023-08-16T07:55:10.822Z,100180.88
2023-08-16T07:59:15.473Z,100175.16
2023-08-16T08:03:19.151Z,100173.81
2023-08-16T08:07:22.167Z,100169.34
2023-08-16T08:11:25.098Z,100168.06
2023-08-16T08:15:31.142Z,100171.50
2023-08-16T08:19:34.276Z,100171.63
2023-08-16T08:23:37.216Z,100167.09
2023-08-16T08:27:40.570Z,100176.19
2023-08-16T08:31:45.629Z,100169.09
2023-08-16T08:35:49.688Z,100167.47
2023-08-16T08:39:52.837Z,100175.41
2023-08-16T08:44:00.124Z,100179.22
2023-08-16T08:48:05.552Z,100174.97
2023-08-16T08:52:09.748Z,100174.72
2023-08-16T08:56:18.552Z,100169.44
2023-08-16T09:00:26.326Z,100158.28
2023-08-16T09:04:37.724Z,100161.31
2023-08-16T09:08:45.255Z,100171.22
2023-08-16T09:12:48.641Z,100164.28
2023-08-16T09:16:52.040Z,100166.81
2023-08-16T09:21:00.473Z,100159.00
2023-08-16T09:25:04.699Z,100160.63
2023-08-16T09:29:08.287Z,100164.50
2023-08-16T09:33:14.943Z,100170.44
2023-08-16T09:37:21.404Z,100159.03
2023-08-16T09:41:24.130Z,100168.75
2023-08-16T09:45:34.189Z,100164.88
2023-08-16T09:49:38.239Z,100164.47
2023-08-16T09:53:49.711Z,100159.38
2023-08-16T09:57:53.596Z,100167.28
2023-08-16T10:02:13.637Z,100158.69
2023-08-16T10:06:20.482Z,100160.66
2023-08-16T10:10:25.596Z,100157.91
2023-08-16T10:14:28.955Z,100164.63
2023-08-16T10:18:33.272Z,100151.88
2023-08-16T10:22:42.029Z,100151.41
2023-08-16T10:26:50.470Z,100161.34
2023-08-16T10:35:02.959Z,100148.91
2023-08-16T10:39:09.968Z,100157.31
2023-08-16T10:47:31.232Z,100157.22
2023-08-16T10:51:45.115Z,100156.34
2023-08-16T10:55:54.364Z,100158.69
2023-08-16T11:00:07.415Z,100153.00
2023-08-16T11:04:10.502Z,100157.47
2023-08-16T11:08:14.521Z,100164.34
2023-08-16T11:12:20.330Z,100156.66
2023-08-16T11:16:26.092Z,100154.72
2023-08-16T11:20:30.680Z,100159.13
2023-08-16T11:24:38.232Z,100158.59
2023-08-16T11:28:44.120Z,100156.63
2023-08-16T11:32:49.044Z,100163.78
2023-08-16T11:36:54.839Z,100165.47
2023-08-16T11:40:58.198Z,100160.78
2023-08-16T11:45:01.965Z,100163.47
2023-08-16T11:49:09.768Z,100161.00
2023-08-16T11:53:18.527Z,100164.81
2023-08-16T11:57:21.861Z,100160.03
2023-08-16T12:01:27.716Z,100156.53
2023-08-16T12:05:37.716Z,100160.75
2023-08-16T12:09:42.123Z,100143.94
2023-08-16T12:13:45.220Z,100144.28
2023-08-16T12:17:48.283Z,100149.38
2023-08-16T12:21:54.352Z,100139.03
2023-08-16T12:25:58.459Z,100132.66
2023-08-16T12:30:01.770Z,100133.25
2023-08-16T12:34:07.298Z,100134.03
2023-08-16T12:38:14.372Z,100126.31
2023-08-16T12:42:17.495Z,100131.50
2023-08-16T12:46:20.699Z,100128.22
2023-08-16T12:50:24.161Z,100126.34
2023-08-16T12:54:28.566Z,100129.41
2023-08-16T12:58:34.522Z,100124.16
2023-08-16T13:02:38.046Z,100122.56
2023-08-16T13:06:52.551Z,100124.94
2023-08-16T13:11:08.480Z,100114.94
2023-08-16T13:15:26.310Z,100113.66
2023-08-16T13:24:08.198Z,100102.38
2023-08-16T13:28:20.110Z,100109.66
2023-08-16T13:32:27.530Z,100113.34
2023-08-16T13:40:52.378Z,100107.72
2023-08-16T13:49:03.648Z,100097.88
2023-08-16T13:53:09.804Z,100098.03
2023-08-16T13:57:12.855Z,100094.63
2023-08-16T14:01:18.052Z,100092.22
2023-08-16T14:05:21.324Z,100097.28
2023-08-16T14:09:24.523Z,100087.97
2023-08-16T14:13:28.648Z,100096.31
2023-08-16T14:17:35.453Z,100095.88
2023-08-16T14:21:42.502Z,100098.88
2023-08-16T14:25:51.015Z,100096.38
2023-08-16T14:29:54.164Z,100098.66
2023-08-16T14:33:58.557Z,100087.59
2023-08-16T14:38:03.103Z,100087.88
2023-08-16T14:42:06.355Z,100095.13
2023-08-16T14:46:09.538Z,100091.25
2023-08-16T14:50:18.452Z,100093.00
2023-08-16T14:54:21.222Z,100094.00
2023-08-16T14:58:23.847Z,100091.91
2023-08-16T15:02:27.364Z,100086.97
2023-08-16T15:06:32.756Z,100093.28
2023-08-16T15:10:35.965Z,100089.81
2023-08-16T15:14:38.402Z,100089.34
2023-08-16T15:18:41.579Z,100083.44
2023-08-16T15:22:46.361Z,100084.19
2023-08-16T15:26:49.498Z,100080.31
2023-08-16T15:30:57.894Z,100082.22
2023-08-16T15:35:03.372Z,100074.13
2023-08-16T15:39:08.690Z,100075.41
2023-08-16T15:43:11.783Z,100075.72
2023-08-16T15:47:15.214Z,100072.16
2023-08-16T15:51:18.296Z,100071.47
2023-08-16T15:55:22.756Z,100067.13
2023-08-16T15:59:31.508Z,100077.34
2023-08-16T16:03:41.808Z,100077.34
2023-08-16T16:07:45.987Z,100079.09
2023-08-16T16:11:50.366Z,100077.19
2023-08-16T16:15:53.486Z,100068.06
2023-08-16T16:19:57.003Z,100062.31
2023-08-16T16:24:00.457Z,100072.97
2023-08-16T16:28:05.620Z,100060.88
2023-08-16T16:32:09.373Z,100059.44
2023-08-16T16:44:02.054Z,100051.50
2023-08-16T16:48:05.997Z,100042.59
2023-08-16T16:52:09.307Z,100059.47
2023-08-16T16:56:12.575Z,100055.88
2023-08-16T17:00:18.208Z,100055.94
2023-08-16T17:04:21.444Z,100068.47
2023-08-16T17:08:27.798Z,100071.31
2023-08-16T17:12:31.231Z,100062.69
2023-08-16T17:16:38.985Z,100072.88
2023-08-16T17:20:41.971Z,100067.09
2023-08-16T17:24:45.405Z,100076.00
2023-08-16T17:28:49.132Z,100078.56
2023-08-16T17:32:54.651Z,100071.47
2023-08-16T17:36:57.697Z,100077.75
2023-08-16T17:41:02.001Z,100074.41
2023-08-16T17:45:05.812Z,100077.13
2023-08-16T17:49:10.320Z,100082.50
2023-08-16T17:53:13.863Z,100088.69
2023-08-16T17:57:17.346Z,100086.94
2023-08-16T18:01:20.556Z,100097.75
2023-08-16T18:05:24.890Z,100101.44
2023-08-16T18:09:28.024Z,100100.28
2023-08-16T18:13:31.865Z,100099.75
2023-08-16T18:17:36.758Z,100109.22
2023-08-16T18:21:41.329Z,100125.78
2023-08-16T18:25:44.779Z,100123.44
2023-08-16T18:29:47.790Z,100129.50
2023-08-16T18:33:50.845Z,100131.06
2023-08-16T18:37:56.116Z,100140.34
2023-08-16T18:42:01.272Z,100136.31
2023-08-16T18:46:04.733Z,100136.88
2023-08-16T18:50:09.180Z,100136.94
2023-08-16T18:54:13.986Z,100134.97
2023-08-16T18:58:19.501Z,100142.56
2023-08-16T19:02:25.815Z,100130.84
2023-08-16T19:06:29.358Z,100137.94
2023-08-16T19:10:33.737Z,100131.81
2023-08-16T19:14:38.561Z,100140.28
2023-08-16T19:18:42.538Z,100142.88
2023-08-16T19:22:45.856Z,100146.41
2023-08-16T19:26:50.589Z,100141.84
2023-08-16T19:30:56.923Z,100141.47
2023-08-16T19:35:01.013Z,100147.09
2023-08-16T19:39:05.663Z,100148.97
2023-08-16T19:43:10.527Z,100150.38
2023-08-16T19:47:13.623Z,100145.97
2023-08-16T19:51:23.656Z,100149.91
2023-08-16T19:55:26.918Z,100146.53
2023-08-16T19:59:31.826Z,100146.19
2023-08-16T20:03:35.188Z,100152.97
2023-08-16T20:07:41.714Z,100155.66
2023-08-16T20:11:46.824Z,100152.66
2023-08-16T20:15:54.540Z,100153.88
2023-08-16T20:19:57.876Z,100156.28
2023-08-16T20:24:01.666Z,100144.19
2023-08-16T20:28:05.538Z,100147.63
2023-08-16T20:32:16.451Z,100152.34
2023-08-16T20:36:19.894Z,100154.94
2023-08-16T20:40:23.494Z,100162.91
2023-08-16T20:44:31.810Z,100151.44
2023-08-16T20:48:36.684Z,100146.06
2023-08-16T20:52:42.863Z,100148.59
2023-08-16T20:56:49.036Z,100143.72
2023-08-16T21:00:52.396Z,100158.88
2023-08-16T21:04:57.432Z,100153.50
2023-08-16T21:09:00.735Z,100155.72
2023-08-16T21:13:04.499Z,100165.66
2023-08-16T21:17:08.546Z,100173.41
2023-08-16T21:21:12.939Z,100163.66
2023-08-16T21:25:16.254Z,100170.06
2023-08-16T21:29:20.368Z,100170.44
2023-08-16T21:33:23.429Z,100160.00
2023-08-16T21:37:28.477Z,100155.78
2023-08-16T21:41:31.415Z,100164.88
2023-08-16T21:45:34.826Z,100165.72
2023-08-16T21:49:37.883Z,100161.19
2023-08-16T21:53:42.404Z,100152.56
2023-08-16T21:57:45.233Z,100148.88
2023-08-16T22:01:48.238Z,100146.19
2023-08-16T22:05:52.370Z,100139.56
2023-08-16T22:09:57.102Z,100147.13
2023-08-16T22:14:00.243Z,100143.09
2023-08-16T22:18:06.462Z,100137.75
2023-08-16T22:22:09.829Z,100134.03
2023-08-16T22:26:14.771Z,100126.97
2023-08-16T22:30:17.788Z,100134.03
2023-08-16T22:34:22.802Z,100137.19
2023-08-16T22:38:27.263Z,100130.50
2023-08-16T22:42:36.212Z,100123.78
2023-08-16T22:46:40.089Z,100111.63
2023-08-16T22:50:46.602Z,100106.56
2023-08-16T22:54:49.885Z,100111.22
2023-08-16T22:58:54.166Z,100113.94
